Time;durP1;ratioP1;P1;durP2;ratioP2;P2;SDS_P1;SDS_P2;PMS_P1;PMS_P2;Temp;Humidity;BMP_temperature;BMP_pressure;BME280_temperature;BME280_humidity;BME280_pressure;Samples;Min_cycle;Max_cycle;Signal;HPM_P1;HPM_P2
2022/11/05 00:11:00;;;;;;;7.90;5.18;;;11.80;97.90;;;;;;4922645;29;20046;-71
2022/11/05 00:19:07;;;;;;;6.53;4.53;;;11.70;97.90;;;;;;4925596;29;20085;-71
2022/11/05 00:27:08;;;;;;;14.15;5.68;;;11.60;98.00;;;;;;4920616;29;20043;-71
2022/11/05 00:29:34;;;;;;;8.07;5.00;;;11.70;98.00;;;;;;4922840;29;20754;-70
2022/11/05 00:32:00;;;;;;;8.55;4.97;;;11.70;98.00;;;;;;4923174;29;20119;-71
2022/11/05 00:34:26;;;;;;;7.65;5.85;;;11.70;98.00;;;;;;4923944;29;20031;-70
2022/11/05 00:36:52;;;;;;;8.93;5.55;;;11.70;98.10;;;;;;4925442;29;20024;-71
2022/11/05 00:39:18;;;;;;;9.07;5.05;;;11.70;98.00;;;;;;4918643;29;20412;-71
2022/11/05 00:44:58;;;;;;;6.53;4.55;;;11.70;98.00;;;;;;4920434;29;20098;-70
2022/11/05 00:49:58;;;;;;;8.23;5.45;;;11.70;98.00;;;;;;4922350;29;20584;-70
2022/11/05 00:55:08;;;;;;;7.72;5.05;;;11.60;97.90;;;;;;4925259;29;20150;-70
2022/11/05 00:57:33;;;;;;;8.65;5.40;;;11.60;97.70;;;;;;4922033;29;20098;-71
2022/11/05 00:59:59;;;;;;;8.27;5.15;;;11.50;97.70;;;;;;4921130;29;20067;-71
2022/11/05 01:02:25;;;;;;;6.88;4.90;;;11.50;97.70;;;;;;4922181;29;20028;-70
2022/11/05 01:04:51;;;;;;;7.78;5.07;;;11.40;97.70;;;;;;4921911;29;20036;-71
2022/11/05 01:07:16;;;;;;;6.78;4.65;;;11.40;97.70;;;;;;4923777;29;20042;-70
2022/11/05 01:09:42;;;;;;;5.68;4.45;;;11.30;97.50;;;;;;4923488;29;20027;-71
2022/11/05 01:12:08;;;;;;;5.60;3.88;;;11.20;97.50;;;;;;4924356;29;20039;-69
2022/11/05 01:14:34;;;;;;;6.25;4.68;;;11.20;97.60;;;;;;4922970;29;20163;-69
2022/11/05 01:16:59;;;;;;;5.57;4.15;;;11.20;97.60;;;;;;4922247;29;20032;-70
2022/11/05 01:19:25;;;;;;;5.55;4.18;;;11.10;97.50;;;;;;4920666;29;20752;-70
2022/11/05 01:21:51;;;;;;;5.47;4.05;;;11.00;97.50;;;;;;4924399;29;20024;-70
2022/11/05 01:24:17;;;;;;;4.57;3.70;;;11.00;97.50;;;;;;4920114;29;20523;-71
2022/11/05 01:26:42;;;;;;;11.48;5.00;;;10.90;97.40;;;;;;4919147;29;20633;-70
2022/11/05 01:29:09;;;;;;;7.78;4.80;;;10.90;97.40;;;;;;4923192;29;20863;-70
2022/11/05 01:31:35;;;;;;;6.80;4.85;;;10.90;97.40;;;;;;4923474;29;20759;-67
2022/11/05 01:34:01;;;;;;;7.15;4.53;;;10.80;97.40;;;;;;4921109;29;20043;-68
2022/11/05 01:36:27;;;;;;;5.93;4.32;;;10.70;97.50;;;;;;4917815;29;20028;-68
2022/11/05 01:38:53;;;;;;;6.35;4.30;;;10.70;97.70;;;;;;4923543;29;20042;-68
2022/11/05 01:41:18;;;;;;;7.00;4.88;;;10.70;97.80;;;;;;4916881;29;20028;-68
2022/11/05 01:43:48;;;;;;;7.82;4.00;;;10.60;97.80;;;;;;4922979;29;20637;-67
2022/11/05 01:46:18;;;;;;;6.30;3.83;;;10.60;97.90;;;;;;4919934;29;20031;-67
2022/11/05 01:48:47;;;;;;;6.15;4.70;;;10.60;97.90;;;;;;4924900;29;20031;-67
2022/11/05 01:51:17;;;;;;;8.60;4.85;;;10.60;98.00;;;;;;4924089;29;20044;-68
2022/11/05 01:54:00;;;;;;;5.68;3.95;;;10.60;98.10;;;;;;4921729;29;20752;-70
2022/11/05 01:56:34;;;;;;;9.43;4.65;;;10.60;98.10;;;;;;4916252;29;20111;-70
2022/11/05 01:59:05;;;;;;;7.22;4.45;;;10.50;98.10;;;;;;4921326;29;20040;-70
2022/11/05 02:01:31;;;;;;;12.35;5.10;;;10.60;98.20;;;;;;4923049;29;20083;-70
2022/11/05 02:04:04;;;;;;;7.22;4.88;;;10.60;98.30;;;;;;4921941;29;20058;-70
2022/11/05 02:06:33;;;;;;;4.55;3.72;;;10.60;98.30;;;;;;4923003;29;20031;-68
2022/11/05 02:09:05;;;;;;;7.95;4.60;;;10.60;98.30;;;;;;4921839;29;20099;-68
2022/11/05 02:11:31;;;;;;;7.30;4.50;;;10.60;98.30;;;;;;4919542;29;20460;-68
2022/11/05 02:13:58;;;;;;;8.10;4.85;;;10.60;98.30;;;;;;4923437;29;20400;-68
2022/11/05 02:16:49;;;;;;;6.93;4.13;;;10.60;98.30;;;;;;4924762;29;20459;-68
2022/11/05 02:19:21;;;;;;;9.85;4.68;;;10.60;98.50;;;;;;4919612;29;20031;-68
2022/11/05 02:21:59;;;;;;;7.55;4.68;;;10.60;98.50;;;;;;4924114;29;20519;-68
2022/11/05 02:24:43;;;;;;;8.52;3.95;;;10.60;98.60;;;;;;4921704;29;20353;-68
2022/11/05 02:27:43;;;;;;;6.93;3.92;;;10.60;98.50;;;;;;4923286;29;20604;-68
2022/11/05 02:30:30;;;;;;;7.13;4.20;;;10.60;98.50;;;;;;4885904;29;20124;-68
2022/11/05 02:33:14;;;;;;;10.48;4.32;;;10.60;98.50;;;;;;4918470;29;20087;-68
2022/11/05 02:36:08;;;;;;;8.35;4.57;;;10.70;98.50;;;;;;4922123;29;20039;-68
2022/11/05 02:38:33;;;;;;;9.32;3.63;;;10.70;98.40;;;;;;4921131;29;20055;-68
2022/11/05 02:41:21;;;;;;;7.25;4.05;;;10.70;98.40;;;;;;4921084;29;20082;-67
2022/11/05 02:43:59;;;;;;;6.93;4.40;;;10.70;98.40;;;;;;4921421;29;20082;-68
2022/11/05 02:47:00;;;;;;;7.20;3.90;;;10.60;98.40;;;;;;4923396;29;20135;-67
2022/11/05 02:49:33;;;;;;;7.03;3.83;;;10.60;98.30;;;;;;4915913;29;20036;-70
2022/11/05 02:52:34;;;;;;;7.53;3.78;;;10.60;98.20;;;;;;4922233;29;20071;-70
2022/11/05 02:55:20;;;;;;;5.10;3.80;;;10.60;98.20;;;;;;4913104;29;20055;-70
2022/11/05 02:57:46;;;;;;;4.55;3.22;;;10.50;98.20;;;;;;4921181;29;20070;-71
2022/11/05 03:00:39;;;;;;;4.45;3.30;;;10.50;98.10;;;;;;4918738;29;20560;-70
2022/11/05 03:03:10;;;;;;;6.47;3.08;;;10.50;98.10;;;;;;4922237;29;20031;-70
2022/11/05 03:06:01;;;;;;;9.40;3.50;;;10.40;98.10;;;;;;4923186;29;20123;-70
2022/11/05 03:08:52;;;;;;;4.28;3.33;;;10.40;98.10;;;;;;4923448;29;20035;-71
2022/11/05 03:11:21;;;;;;;11.68;3.30;;;10.30;98.00;;;;;;4921627;29;20108;-67
2022/11/05 03:14:16;;;;;;;7.22;3.08;;;10.30;98.00;;;;;;4921415;29;20035;-68
2022/11/05 03:16:46;;;;;;;6.90;3.33;;;10.30;98.00;;;;;;4896281;29;20044;-67
2022/11/05 03:19:33;;;;;;;6.57;3.30;;;10.20;98.00;;;;;;4924907;29;20035;-67
2022/11/05 03:22:08;;;;;;;3.90;2.85;;;10.20;98.20;;;;;;4925697;29;20043;-67
2022/11/05 03:24:37;;;;;;;4.50;2.72;;;10.10;98.20;;;;;;4923975;29;20082;-68
2022/11/05 03:27:14;;;;;;;3.88;3.00;;;10.20;98.20;;;;;;4925094;29;20855;-71
2022/11/05 03:29:47;;;;;;;3.00;2.50;;;10.10;98.30;;;;;;4923275;29;21050;-70
2022/11/05 03:32:16;;;;;;;4.80;2.53;;;10.10;98.20;;;;;;4923070;29;20452;-70
2022/11/05 03:34:46;;;;;;;6.70;2.45;;;10.10;98.20;;;;;;4922303;29;20027;-71
2022/11/05 03:37:15;;;;;;;6.10;3.10;;;10.10;98.20;;;;;;4923060;29;20050;-70
2022/11/05 03:39:45;;;;;;;9.32;3.78;;;10.10;98.30;;;;;;4926008;29;20535;-70
2022/11/05 03:42:15;;;;;;;6.70;2.90;;;10.10;98.30;;;;;;4925617;29;20457;-70
2022/11/05 03:44:46;;;;;;;5.20;2.90;;;10.10;98.40;;;;;;4926735;29;20763;-70
2022/11/05 03:47:17;;;;;;;4.07;2.42;;;10.10;98.40;;;;;;4923910;29;20046;-68
2022/11/05 03:49:55;;;;;;;4.80;2.72;;;10.10;98.50;;;;;;4925622;29;20036;-67
2022/11/05 03:52:26;;;;;;;4.45;2.35;;;10.10;98.50;;;;;;4921272;29;20036;-67
2022/11/05 03:54:52;;;;;;;4.78;2.80;;;10.10;98.50;;;;;;4925803;29;20036;-68
2022/11/05 03:57:32;;;;;;;4.82;2.38;;;10.10;98.50;;;;;;4924788;29;20028;-68
2022/11/05 03:59:58;;;;;;;4.30;2.80;;;10.10;98.50;;;;;;4924298;29;20032;-68
2022/11/05 04:02:26;;;;;;;4.15;2.22;;;10.10;98.50;;;;;;4923710;29;20039;-70
2022/11/05 04:04:52;;;;;;;4.85;2.80;;;10.10;98.50;;;;;;4927848;29;20141;-71
2022/11/05 04:17:05;;;;;;;6.32;2.38;;;10.10;98.40;;;;;;4923837;29;20626;-71
2022/11/05 04:18:20;;;;;;;4.93;2.60;;;10.10;98.30;;;;;;4924845;29;20096;-70
2022/11/05 04:31:36;;;;;;;5.95;2.20;;;9.80;98.30;;;;;;4919391;29;19925;-70
2022/11/05 04:34:02;;;;;;;4.63;2.58;;;9.70;98.20;;;;;;4918219;29;20050;-71
2022/11/05 04:36:28;;;;;;;4.38;2.30;;;9.70;98.30;;;;;;4911746;29;20673;-71
2022/11/05 04:38:54;;;;;;;3.40;2.10;;;9.70;98.20;;;;;;4911582;29;20464;-71
2022/11/05 04:41:20;;;;;;;4.90;2.20;;;9.70;98.10;;;;;;4913662;29;20139;-70
2022/11/05 04:43:46;;;;;;;4.10;2.55;;;9.70;98.10;;;;;;4909333;29;20510;-70
2022/11/05 04:46:12;;;;;;;4.40;2.00;;;9.60;98.20;;;;;;4918661;29;20044;-70
2022/11/05 04:48:38;;;;;;;5.95;2.78;;;9.60;98.30;;;;;;4917466;29;20032;-70
2022/11/05 04:51:04;;;;;;;5.38;2.47;;;9.60;98.40;;;;;;4917702;29;20059;-70
2022/11/05 04:53:30;;;;;;;4.10;2.45;;;9.60;98.30;;;;;;4912620;29;20043;-70
2022/11/05 04:56:19;;;;;;;3.35;2.00;;;9.60;98.30;;;;;;4914039;29;20035;-71
2022/11/05 04:58:45;;;;;;;7.45;3.22;;;9.60;98.30;;;;;;4909565;29;20050;-71
2022/11/05 05:01:13;;;;;;;4.88;2.53;;;9.60;98.10;;;;;;4917409;29;20032;-70
2022/11/05 05:03:39;;;;;;;3.45;2.35;;;9.50;98.00;;;;;;4911615;29;20703;-70
2022/11/05 05:06:05;;;;;;;7.53;3.00;;;9.50;98.00;;;;;;4913480;29;20178;-70
2022/11/05 05:08:31;;;;;;;6.72;2.97;;;9.50;98.00;;;;;;4915887;28;20040;-70
2022/11/05 05:11:09;;;;;;;5.43;2.92;;;9.50;98.00;;;;;;4937528;28;20042;-70
2022/11/05 05:13:35;;;;;;;4.88;2.40;;;9.40;98.10;;;;;;4931760;29;20036;-70
2022/11/05 05:16:10;;;;;;;6.68;2.90;;;9.50;98.10;;;;;;4917192;29;20058;-71
2022/11/05 05:18:35;;;;;;;10.52;3.20;;;9.40;98.00;;;;;;4926688;29;20028;-70
2022/11/05 05:23:47;;;;;;;6.47;2.67;;;9.40;98.00;;;;;;4922026;29;20744;-70
2022/11/05 05:26:13;;;;;;;5.65;3.00;;;9.40;98.00;;;;;;4925240;29;20035;-70
2022/11/05 05:28:39;;;;;;;7.47;3.42;;;9.40;98.10;;;;;;4924410;28;20776;-70
2022/11/05 05:31:05;;;;;;;6.13;3.20;;;9.30;98.10;;;;;;4920986;28;20118;-70
2022/11/05 05:33:31;;;;;;;7.28;3.58;;;9.30;98.30;;;;;;4927869;29;20394;-70
2022/11/05 05:35:57;;;;;;;8.30;4.13;;;9.30;98.30;;;;;;4918281;29;20040;-70
2022/11/05 05:38:23;;;;;;;7.07;2.78;;;9.30;98.30;;;;;;4919874;29;20035;-70
2022/11/05 05:40:50;;;;;;;6.53;3.00;;;9.30;98.30;;;;;;4924879;29;20032;-71
2022/11/05 05:43:16;;;;;;;4.05;2.83;;;9.30;98.30;;;;;;4923961;29;20131;-70
2022/11/05 05:45:42;;;;;;;6.47;3.42;;;9.30;98.30;;;;;;4924522;29;20059;-71
2022/11/05 05:48:08;;;;;;;7.95;3.30;;;9.30;98.30;;;;;;4917762;28;20074;-70
2022/11/05 05:50:34;;;;;;;7.20;3.83;;;9.30;98.10;;;;;;4924079;29;20513;-70
2022/11/05 05:53:06;;;;;;;6.35;3.78;;;9.30;98.20;;;;;;4926205;29;20111;-70
2022/11/05 05:55:32;;;;;;;4.45;3.30;;;9.30;98.30;;;;;;4920080;29;20071;-70
2022/11/05 05:57:57;;;;;;;6.93;3.30;;;9.30;98.20;;;;;;4923607;29;20055;-71
2022/11/05 06:00:23;;;;;;;6.68;3.35;;;9.30;98.10;;;;;;4919464;29;20040;-71
2022/11/05 06:02:49;;;;;;;5.78;3.17;;;9.30;98.10;;;;;;4915331;29;20066;-70
2022/11/05 06:05:15;;;;;;;8.75;3.58;;;9.30;98.00;;;;;;4918256;29;20039;-70
2022/11/05 06:07:41;;;;;;;8.07;3.15;;;9.30;98.00;;;;;;4918366;29;20139;-71
2022/11/05 06:10:07;;;;;;;6.85;3.42;;;9.30;98.00;;;;;;4924308;28;20424;-70
2022/11/05 06:12:32;;;;;;;6.15;3.50;;;9.30;98.10;;;;;;4911690;29;20560;-70
2022/11/05 06:14:58;;;;;;;5.00;3.45;;;9.30;98.00;;;;;;4920037;29;20038;-70
2022/11/05 06:17:38;;;;;;;7.80;3.33;;;9.30;97.90;;;;;;4923725;29;20027;-71
2022/11/05 06:20:04;;;;;;;5.97;3.47;;;9.30;97.90;;;;;;4920261;29;20046;-70
2022/11/05 06:22:30;;;;;;;6.82;3.10;;;9.30;98.00;;;;;;4923175;29;20032;-70
2022/11/05 06:24:56;;;;;;;8.73;3.47;;;9.20;98.00;;;;;;4915084;29;20040;-70
2022/11/05 06:27:21;;;;;;;7.93;3.28;;;9.30;98.00;;;;;;4915785;29;20036;-71
2022/11/05 06:29:47;;;;;;;4.95;3.00;;;9.20;97.90;;;;;;4915553;29;20154;-70
2022/11/05 06:32:13;;;;;;;8.70;3.70;;;9.20;97.90;;;;;;4913207;29;20027;-71
2022/11/05 06:34:39;;;;;;;4.40;2.70;;;9.30;98.00;;;;;;4929769;28;20050;-70
2022/11/05 06:37:04;;;;;;;8.85;3.20;;;9.20;98.00;;;;;;4933239;28;20051;-70
2022/11/05 06:39:30;;;;;;;11.10;3.25;;;9.30;98.10;;;;;;4913865;29;20083;-70
2022/11/05 06:41:56;;;;;;;7.70;2.85;;;9.30;98.20;;;;;;4927018;29;20111;-70
2022/11/05 06:44:22;;;;;;;5.18;3.13;;;9.30;98.20;;;;;;4918292;29;20039;-70
2022/11/05 06:46:47;;;;;;;6.65;3.20;;;9.30;98.20;;;;;;4917009;28;20078;-70
2022/11/05 06:49:14;;;;;;;8.68;3.70;;;9.40;98.20;;;;;;4917436;29;20038;-70
2022/11/05 06:51:39;;;;;;;4.25;2.90;;;9.40;98.20;;;;;;4930454;29;20035;-71
2022/11/05 06:54:05;;;;;;;6.90;3.42;;;9.40;98.20;;;;;;4912772;29;20419;-71
2022/11/05 06:56:31;;;;;;;5.90;3.15;;;9.50;98.20;;;;;;4927115;28;20069;-70
2022/11/05 06:58:57;;;;;;;5.88;2.90;;;9.50;98.10;;;;;;4920148;29;20043;-70
2022/11/05 07:01:22;;;;;;;7.15;3.50;;;9.50;98.10;;;;;;4922649;29;20032;-70
2022/11/05 07:03:48;;;;;;;5.75;3.08;;;9.50;98.10;;;;;;4915080;29;20021;-70
2022/11/05 07:06:14;;;;;;;7.53;3.42;;;9.50;98.10;;;;;;4919764;29;20040;-70
2022/11/05 07:08:40;;;;;;;7.10;3.85;;;9.50;98.10;;;;;;4924638;28;20074;-71
2022/11/05 07:11:06;;;;;;;4.82;3.30;;;9.50;98.10;;;;;;4919217;29;20027;-74
2022/11/05 07:13:32;;;;;;;13.52;5.03;;;9.50;98.00;;;;;;4915356;29;20055;-71
2022/11/05 07:15:58;;;;;;;8.43;4.18;;;9.50;98.10;;;;;;4916921;29;20036;-70
2022/11/05 07:18:24;;;;;;;10.90;4.78;;;9.50;98.10;;;;;;4918413;29;20028;-71
2022/11/05 07:20:49;;;;;;;8.90;4.18;;;9.60;98.10;;;;;;4917073;29;20035;-71
2022/11/05 07:23:15;;;;;;;8.27;4.43;;;9.50;98.00;;;;;;4917491;29;20062;-71
2022/11/05 07:25:42;;;;;;;9.80;4.53;;;9.60;98.00;;;;;;4915890;29;20042;-72
2022/11/05 07:28:09;;;;;;;7.80;3.92;;;9.60;97.90;;;;;;4919884;29;20086;-71
2022/11/05 07:30:35;;;;;;;7.60;4.38;;;9.50;97.80;;;;;;4912854;29;20048;-71
2022/11/05 07:33:02;;;;;;;6.85;3.40;;;9.60;97.80;;;;;;4909913;29;20040;-73
2022/11/05 07:35:28;;;;;;;9.38;4.05;;;9.60;97.90;;;;;;4915926;29;20032;-68
2022/11/05 07:37:54;;;;;;;12.15;4.25;;;9.60;97.90;;;;;;4919226;29;20283;-71
2022/11/05 07:40:22;;;;;;;8.85;4.28;;;9.60;97.90;;;;;;4912522;29;20024;-71
2022/11/05 07:42:50;;;;;;;10.50;4.20;;;9.70;98.00;;;;;;4916802;29;20044;-73
2022/11/05 07:45:16;;;;;;;12.77;4.63;;;9.70;97.90;;;;;;4918653;29;20032;-75
2022/11/05 07:47:46;;;;;;;10.38;4.65;;;9.80;97.90;;;;;;4914991;29;20097;-75
2022/11/05 07:50:13;;;;;;;8.63;4.55;;;9.80;97.80;;;;;;4922614;28;20130;-74
2022/11/05 07:52:38;;;;;;;8.65;4.85;;;9.90;97.70;;;;;;4925060;28;20040;-75
2022/11/05 07:55:05;;;;;;;10.30;4.88;;;9.90;97.80;;;;;;4926813;28;20047;-74
2022/11/05 07:57:30;;;;;;;11.70;5.07;;;9.90;97.80;;;;;;4925147;28;20031;-72
2022/11/05 07:59:56;;;;;;;13.40;5.00;;;10.00;97.80;;;;;;4919320;29;20039;-74
2022/11/05 08:02:22;;;;;;;10.43;4.72;;;10.00;97.60;;;;;;4928325;29;20082;-73
2022/11/05 08:04:48;;;;;;;12.82;5.80;;;10.00;97.60;;;;;;4922063;29;20039;-74
2022/11/05 08:07:13;;;;;;;11.57;5.05;;;10.00;97.50;;;;;;4922411;29;20050;-74
2022/11/05 08:09:39;;;;;;;12.80;5.05;;;10.10;97.50;;;;;;4932894;28;20091;-74
2022/11/05 08:12:05;;;;;;;13.02;4.82;;;10.10;97.40;;;;;;4925481;29;20087;-74
2022/11/05 08:14:31;;;;;;;16.65;5.57;;;10.10;97.40;;;;;;4921033;29;20139;-74
2022/11/05 08:16:57;;;;;;;10.40;4.75;;;10.10;97.20;;;;;;4921962;29;20041;-70
2022/11/05 08:19:23;;;;;;;13.15;5.63;;;10.10;97.20;;;;;;4931901;29;20737;-70
2022/11/05 08:21:49;;;;;;;12.15;5.88;;;10.10;97.20;;;;;;4927382;28;20119;-71
2022/11/05 08:24:14;;;;;;;10.02;5.20;;;10.10;97.20;;;;;;4924927;29;20114;-69
2022/11/05 08:26:40;;;;;;;12.18;5.00;;;10.20;97.30;;;;;;4924411;28;20027;-70
2022/11/05 08:29:06;;;;;;;10.48;4.18;;;10.30;97.00;;;;;;4925638;29;20897;-69
2022/11/05 08:31:32;;;;;;;12.85;4.55;;;10.30;96.80;;;;;;4931868;28;20639;-68
2022/11/05 08:33:57;;;;;;;9.55;4.82;;;10.40;97.00;;;;;;4929232;28;20081;-69
2022/11/05 08:36:23;;;;;;;8.18;4.53;;;10.50;96.50;;;;;;4927802;28;20766;-76
2022/11/05 08:38:50;;;;;;;15.38;4.85;;;10.50;96.50;;;;;;4931219;28;20031;-74
2022/11/05 08:41:16;;;;;;;17.67;5.03;;;10.60;96.60;;;;;;4937205;29;20076;-70
2022/11/05 08:43:41;;;;;;;9.60;4.57;;;10.60;96.50;;;;;;4924192;28;20468;-74
2022/11/05 08:46:07;;;;;;;11.10;4.00;;;10.70;96.50;;;;;;4912770;29;20403;-74
2022/11/05 08:48:33;;;;;;;8.48;4.30;;;10.80;96.40;;;;;;4919618;29;20032;-74
2022/11/05 08:51:00;;;;;;;13.95;4.65;;;10.90;96.40;;;;;;4926598;28;20035;-76
2022/11/05 08:53:26;;;;;;;11.98;4.90;;;10.90;95.80;;;;;;4924025;29;20043;-75
2022/11/05 08:55:56;;;;;;;10.25;5.22;;;11.00;96.00;;;;;;4932818;29;20035;-75
2022/11/05 08:58:21;;;;;;;13.85;4.47;;;11.30;96.00;;;;;;4918121;29;20365;-74
2022/11/05 09:00:49;;;;;;;11.15;4.07;;;11.50;95.10;;;;;;4937028;28;20050;-75
2022/11/05 09:03:15;;;;;;;9.32;4.13;;;12.30;94.20;;;;;;4922483;29;20413;-75
2022/11/05 09:05:46;;;;;;;13.20;4.43;;;13.70;91.80;;;;;;4918749;29;20063;-73
2022/11/05 09:08:15;;;;;;;9.05;4.13;;;15.00;88.60;;;;;;4942315;28;20046;-71
2022/11/05 09:10:42;;;;;;;13.55;4.60;;;16.30;83.20;;;;;;4929287;29;20127;-72
2022/11/05 09:13:08;;;;;;;12.75;4.30;;;17.10;77.00;;;;;;4928496;28;20123;-68
2022/11/05 09:15:35;;;;;;;9.00;3.97;;;17.70;74.30;;;;;;4929062;29;20452;-68
2022/11/05 09:18:04;;;;;;;8.00;3.88;;;18.00;72.40;;;;;;4926268;29;20038;-71
2022/11/05 09:20:31;;;;;;;10.35;3.50;;;18.70;70.40;;;;;;4931961;28;20127;-69
2022/11/05 09:22:56;;;;;;;8.13;3.60;;;19.40;68.00;;;;;;4929850;29;20040;-71
2022/11/05 09:25:22;;;;;;;7.60;4.20;;;20.00;64.90;;;;;;4930427;29;20036;-71
2022/11/05 09:27:48;;;;;;;8.52;3.97;;;20.60;62.20;;;;;;4914998;29;20043;-71
2022/11/05 09:30:14;;;;;;;9.30;3.53;;;20.90;58.80;;;;;;4923842;29;20050;-71
2022/11/05 09:32:41;;;;;;;5.18;3.05;;;21.00;58.60;;;;;;4924340;29;20031;-71
2022/11/05 09:35:07;;;;;;;10.25;3.10;;;21.30;59.20;;;;;;4939826;28;20035;-72
2022/11/05 09:37:35;;;;;;;10.82;3.25;;;21.60;56.30;;;;;;4914303;29;20087;-70
2022/11/05 09:40:00;;;;;;;7.63;3.10;;;21.40;56.30;;;;;;4923081;29;20038;-70
2022/11/05 09:42:36;;;;;;;9.23;3.22;;;21.00;57.70;;;;;;4929103;29;20031;-72
2022/11/05 09:45:17;;;;;;;7.07;3.55;;;21.00;59.90;;;;;;4943927;28;20047;-72
2022/11/05 09:47:48;;;;;;;8.48;4.55;;;21.60;57.30;;;;;;4924366;29;20036;-74
2022/11/05 09:50:21;;;;;;;9.52;4.03;;;22.00;55.70;;;;;;4928361;29;20042;-71
2022/11/05 09:52:47;;;;;;;12.98;4.95;;;22.60;55.40;;;;;;4915961;29;20107;-70
2022/11/05 09:55:24;;;;;;;8.27;4.55;;;22.90;53.80;;;;;;4923548;29;20036;-71
2022/11/05 09:58:00;;;;;;;9.70;4.97;;;22.30;53.40;;;;;;4916334;29;20039;-71
2022/11/05 10:00:26;;;;;;;;;;;21.90;53.90;;;;;;4920829;29;20086;-72
2022/11/05 10:03:02;;;;;;;6.35;4.13;;;21.20;55.90;;;;;;4921352;29;19915;-71
2022/11/05 10:05:31;;;;;;;6.93;4.13;;;20.40;56.90;;;;;;4927961;29;20063;-72
2022/11/05 10:08:23;;;;;;;10.65;5.18;;;19.40;59.50;;;;;;4924281;29;20703;-72
2022/11/05 10:10:54;;;;;;;13.75;3.70;;;18.80;62.10;;;;;;4916178;29;20052;-72
2022/11/05 10:13:22;;;;;;;6.05;2.97;;;19.20;63.40;;;;;;4917820;29;20086;-72
2022/11/05 10:16:03;;;;;;;11.27;3.70;;;19.90;60.40;;;;;;4921316;28;20208;-72
2022/11/05 10:18:38;;;;;;;7.20;3.00;;;21.10;58.00;;;;;;4915871;29;20035;-71
2022/11/05 10:21:05;;;;;;;10.57;3.13;;;22.00;54.50;;;;;;4923329;29;20185;-72
2022/11/05 10:23:31;;;;;;;15.50;4.10;;;22.60;51.60;;;;;;4915773;28;20518;-72
2022/11/05 10:26:12;;;;;;;9.90;3.60;;;22.80;51.80;;;;;;4934990;29;20038;-72
2022/11/05 10:28:38;;;;;;;6.50;4.05;;;23.80;51.50;;;;;;4915274;29;20088;-72
2022/11/05 10:31:16;;;;;;;8.65;4.68;;;24.30;48.90;;;;;;4921692;29;20527;-72
2022/11/05 10:34:00;;;;;;;11.77;3.70;;;25.00;47.10;;;;;;4914169;29;20044;-71
2022/11/05 10:36:30;;;;;;;8.60;3.63;;;25.00;45.40;;;;;;4922817;29;20120;-71
2022/11/05 10:39:04;;;;;;;11.32;3.97;;;24.90;46.50;;;;;;4915707;29;20036;-71
2022/11/05 10:41:56;;;;;;;9.27;3.47;;;25.40;46.00;;;;;;4928526;29;20039;-71
2022/11/05 10:44:25;;;;;;;13.30;3.75;;;25.60;44.60;;;;;;4930711;29;20148;-71
2022/11/05 10:47:15;;;;;;;7.80;2.92;;;25.80;45.20;;;;;;4918524;29;20748;-72
2022/11/05 10:49:56;;;;;;;9.88;3.10;;;25.70;44.30;;;;;;4925521;28;20499;-72
2022/11/05 10:52:31;;;;;;;11.32;2.80;;;25.30;44.70;;;;;;4918414;29;20027;-71
2022/11/05 10:55:05;;;;;;;6.32;2.80;;;24.70;46.70;;;;;;4920010;29;20048;-72
2022/11/05 10:57:39;;;;;;;8.38;2.72;;;25.10;45.60;;;;;;4917815;29;20439;-72
2022/11/05 11:00:25;;;;;;;7.30;2.22;;;24.80;46.00;;;;;;4922043;29;20035;-72
2022/11/05 11:02:59;;;;;;;17.35;3.00;;;22.80;50.80;;;;;;4909462;29;20062;-72
2022/11/05 11:05:37;;;;;;;8.98;2.40;;;21.00;54.00;;;;;;4922570;29;20047;-71
2022/11/05 11:08:13;;;;;;;6.13;2.15;;;19.50;56.90;;;;;;4927015;23;20465;-68
2022/11/05 11:10:51;;;;;;;9.48;1.85;;;18.10;61.40;;;;;;4915016;29;20032;-68
2022/11/05 11:13:26;;;;;;;6.75;2.20;;;17.40;65.50;;;;;;4918127;29;20046;-68
2022/11/05 11:15:52;;;;;;;9.30;1.85;;;16.90;66.70;;;;;;4913251;29;20511;-68
2022/11/05 11:18:29;;;;;;;9.05;2.45;;;16.50;67.80;;;;;;4908907;29;20031;-68
2022/11/05 11:21:06;;;;;;;8.60;3.10;;;16.20;68.60;;;;;;4914961;29;20127;-68
2022/11/05 11:23:40;;;;;;;6.18;1.98;;;16.10;70.90;;;;;;4918923;29;20253;-68
2022/11/05 11:26:07;;;;;;;12.40;1.95;;;16.00;70.60;;;;;;4914124;29;20051;-68
2022/11/05 11:28:35;;;;;;;5.72;1.55;;;15.90;71.10;;;;;;4920537;29;20492;-68
2022/11/05 11:31:19;;;;;;;7.75;3.33;;;15.90;71.60;;;;;;4911144;29;20040;-68
2022/11/05 11:33:48;;;;;;;4.38;1.90;;;15.90;73.10;;;;;;4914023;29;20036;-68
2022/11/05 11:36:18;;;;;;;6.45;1.60;;;16.00;71.50;;;;;;4917657;29;20035;-68
2022/11/05 11:38:44;;;;;;;9.25;1.92;;;15.90;70.50;;;;;;4913505;29;21838;-68
2022/11/05 11:41:10;;;;;;;5.95;1.90;;;16.00;70.60;;;;;;4923400;29;20399;-68
2022/11/05 11:43:39;;;;;;;7.85;1.45;;;15.90;71.30;;;;;;4921968;29;20035;-68
2022/11/05 11:46:16;;;;;;;6.50;2.53;;;15.90;70.10;;;;;;4918071;29;20123;-69
2022/11/05 11:48:44;;;;;;;;;;;15.80;71.70;;;;;;4922674;29;20036;-68
2022/11/05 11:51:30;;;;;;;5.18;3.03;;;15.80;72.00;;;;;;4916899;29;19962;-68
2022/11/05 11:53:58;;;;;;;3.80;1.25;;;15.80;72.20;;;;;;4911613;29;20036;-68
2022/11/05 11:56:24;;;;;;;3.83;1.48;;;15.70;70.60;;;;;;4915763;29;20074;-68
2022/11/05 11:59:01;;;;;;;5.95;2.15;;;15.70;70.90;;;;;;4916229;29;20031;-68
2022/11/05 12:01:51;;;;;;;7.57;1.80;;;15.70;72.00;;;;;;4915383;29;20028;-69
2022/11/05 12:04:37;;;;;;;7.63;1.88;;;15.60;71.80;;;;;;4917205;29;20087;-68
2022/11/05 12:07:15;;;;;;;7.85;2.67;;;15.50;71.50;;;;;;4918434;29;20397;-68
2022/11/05 12:10:07;;;;;;;9.13;2.53;;;15.50;72.30;;;;;;4916565;29;20040;-68
2022/11/05 12:13:14;;;;;;;7.03;2.42;;;15.50;72.00;;;;;;4917833;29;20043;-68
2022/11/05 12:15:52;;;;;;;9.48;3.55;;;15.40;72.50;;;;;;4911632;29;20023;-68
2022/11/05 12:18:21;;;;;;;5.88;1.50;;;15.40;73.30;;;;;;4918139;29;20127;-68
2022/11/05 12:21:03;;;;;;;12.80;2.30;;;15.40;73.00;;;;;;4918361;29;20118;-69
2022/11/05 12:23:28;;;;;;;4.72;2.13;;;15.40;72.00;;;;;;4914174;29;20028;-67
2022/11/05 12:26:02;;;;;;;8.95;3.92;;;15.40;73.00;;;;;;4916300;29;20500;-67
2022/11/05 12:28:50;;;;;;;7.55;3.40;;;15.40;73.10;;;;;;4913667;29;20090;-67
2022/11/05 12:31:31;;;;;;;6.50;2.15;;;15.40;71.80;;;;;;4914548;29;20452;-67
2022/11/05 12:33:57;;;;;;;4.15;2.45;;;15.40;73.40;;;;;;4914514;29;20040;-68
2022/11/05 12:39:21;;;;;;;8.75;2.60;;;15.40;72.80;;;;;;4975344;23;20051;-72
2022/11/05 12:42:21;;;;;;;1.65;1.45;;;15.30;73.20;;;;;;4918354;29;20269;-71
2022/11/05 12:44:57;;;;;;;6.25;1.63;;;15.20;71.70;;;;;;4912962;29;20048;-72
2022/11/05 12:47:58;;;;;;;6.80;1.95;;;15.20;72.20;;;;;;4918983;29;20027;-72
2022/11/05 12:50:43;;;;;;;6.18;1.90;;;15.10;73.20;;;;;;4917615;29;20146;-72
2022/11/05 12:53:27;;;;;;;4.05;1.48;;;15.00;72.40;;;;;;4918163;29;20050;-72
2022/11/05 12:55:56;;;;;;;5.72;1.58;;;15.00;73.10;;;;;;4916491;29;20088;-72
2022/11/05 12:58:33;;;;;;;6.97;1.60;;;15.00;74.20;;;;;;4912600;29;20910;-72
2022/11/05 13:01:07;;;;;;;3.60;1.15;;;15.00;73.20;;;;;;4918315;29;20060;-72
2022/11/05 13:03:41;;;;;;;5.53;1.55;;;15.00;72.50;;;;;;4918737;29;20016;-71
2022/11/05 13:06:14;;;;;;;4.13;1.20;;;15.00;72.30;;;;;;4912640;29;20119;-72
2022/11/05 13:08:43;;;;;;;1.75;1.10;;;14.90;73.00;;;;;;4917621;29;20076;-72
2022/11/05 13:11:32;;;;;;;5.82;1.27;;;14.80;72.60;;;;;;4916280;29;20400;-72
2022/11/05 13:14:25;;;;;;;5.13;1.15;;;14.70;73.40;;;;;;4919933;29;20054;-71
2022/11/05 13:17:00;;;;;;;4.55;1.10;;;14.60;73.40;;;;;;4920535;29;20044;-72
2022/11/05 13:19:38;;;;;;;5.57;1.02;;;14.50;75.20;;;;;;4916627;29;20036;-72
2022/11/05 13:22:16;;;;;;;4.60;1.20;;;14.50;74.90;;;;;;4918060;29;20032;-72
2022/11/05 13:24:50;;;;;;;5.88;1.63;;;14.50;74.60;;;;;;4916797;29;20040;-72
2022/11/05 13:27:31;;;;;;;4.55;1.60;;;14.50;75.00;;;;;;4915923;29;20031;-72
2022/11/05 13:30:05;;;;;;;6.75;1.70;;;14.50;75.70;;;;;;4916237;29;20047;-72
2022/11/05 13:32:38;;;;;;;7.00;2.20;;;14.50;74.90;;;;;;4915935;29;20710;-71
2022/11/05 13:35:12;;;;;;;8.13;2.80;;;14.50;74.70;;;;;;4923028;29;20094;-71
2022/11/05 13:40:46;;;;;;;4.78;1.10;;;14.50;73.70;;;;;;4914662;29;20933;-72
2022/11/05 13:43:34;;;;;;;3.78;1.25;;;14.50;74.40;;;;;;4916214;29;20038;-72
2022/11/05 13:46:06;;;;;;;5.47;1.60;;;14.60;75.00;;;;;;4914301;29;20047;-72
2022/11/05 13:49:10;;;;;;;8.05;1.55;;;14.60;75.20;;;;;;4917546;29;20707;-72
2022/11/05 13:52:00;;;;;;;7.20;2.08;;;14.60;76.80;;;;;;4893949;29;20091;-72
2022/11/05 13:54:50;;;;;;;9.90;2.00;;;14.50;75.10;;;;;;4919763;29;20032;-72
2022/11/05 13:57:52;;;;;;;5.15;1.83;;;14.40;75.40;;;;;;4914147;29;20084;-72
2022/11/05 14:00:23;;;;;;;6.22;1.42;;;14.40;75.60;;;;;;4916231;29;20689;-72
2022/11/05 14:02:55;;;;;;;6.88;1.10;;;14.40;77.20;;;;;;4914174;29;20079;-71
2022/11/05 14:05:28;;;;;;;7.03;1.42;;;14.30;77.00;;;;;;4921140;29;20046;-72
2022/11/05 14:07:56;;;;;;;5.47;1.52;;;14.20;77.40;;;;;;4911784;29;20554;-72